createdAt,value
2018-07-17T00:02:03.021Z,11.25
2018-07-17T00:07:06.890Z,13.00
2018-07-17T00:12:10.762Z,10.80
2018-07-17T00:17:14.550Z,10.00
2018-07-17T00:22:18.410Z,10.80
2018-07-17T00:27:22.275Z,12.00
2018-07-17T00:32:26.046Z,12.75
2018-07-17T00:37:29.838Z,11.00
2018-07-17T00:42:33.630Z,12.00
2018-07-17T00:47:37.418Z,12.75
2018-07-17T00:52:41.182Z,12.50
2018-07-17T00:57:45.066Z,11.00
2018-07-17T01:02:53.886Z,10.75
2018-07-17T01:08:02.979Z,11.80
2018-07-17T01:13:05.914Z,11.50
2018-07-17T01:18:09.827Z,11.75
2018-07-17T01:23:13.756Z,12.80
2018-07-17T01:28:17.584Z,12.00
2018-07-17T01:33:21.478Z,12.60
2018-07-17T01:38:25.412Z,11.50
2018-07-17T01:43:29.177Z,15.25
2018-07-17T01:48:32.986Z,14.25
2018-07-17T01:53:36.869Z,10.75
2018-07-17T01:58:40.694Z,12.00
2018-07-17T02:03:44.466Z,13.20
2018-07-17T02:08:48.289Z,13.25
2018-07-17T02:13:52.120Z,11.00
2018-07-17T02:18:55.925Z,12.25
2018-07-17T02:23:59.757Z,14.00
2018-07-17T02:29:03.514Z,14.20
2018-07-17T02:34:07.455Z,11.75
2018-07-17T02:39:11.227Z,10.50
2018-07-17T02:44:15.051Z,11.00
2018-07-17T02:49:18.855Z,14.00
2018-07-17T02:54:22.677Z,12.40
2018-07-17T02:59:26.635Z,11.75
2018-07-17T03:04:30.550Z,10.00
2018-07-17T03:09:34.526Z,10.00
2018-07-17T03:14:38.355Z,13.00
2018-07-17T03:19:42.213Z,10.75
2018-07-17T03:24:46.035Z,10.75
2018-07-17T03:29:49.880Z,11.00
2018-07-17T03:34:53.826Z,10.80
2018-07-17T03:39:57.694Z,9.40
2018-07-17T03:45:02.314Z,11.80
2018-07-17T03:50:06.282Z,10.00
2018-07-17T03:55:10.205Z,10.00
2018-07-17T04:00:14.073Z,12.00
2018-07-17T04:05:17.966Z,13.00
2018-07-17T04:10:21.816Z,15.80
2018-07-17T04:15:25.631Z,19.40
2018-07-17T04:20:29.511Z,17.40
2018-07-17T04:25:33.367Z,17.25
2018-07-17T04:30:37.183Z,21.00
2018-07-17T04:35:41.086Z,20.00
2018-07-17T04:40:44.966Z,19.75
2018-07-17T04:45:48.834Z,20.60
2018-07-17T04:50:52.672Z,18.25
2018-07-17T04:55:56.574Z,22.40
2018-07-17T05:01:00.329Z,20.60
2018-07-17T05:06:04.187Z,21.00
2018-07-17T05:11:07.978Z,19.50
2018-07-17T05:16:11.719Z,20.20
2018-07-17T05:21:15.504Z,21.60
2018-07-17T05:26:19.303Z,23.50
2018-07-17T05:31:23.100Z,20.00
2018-07-17T05:36:26.897Z,21.50
2018-07-17T05:41:30.731Z,18.25
2018-07-17T05:46:34.795Z,21.25
2018-07-17T05:51:38.610Z,18.80
2018-07-17T05:56:42.509Z,20.80
2018-07-17T06:01:46.417Z,21.60
2018-07-17T06:06:50.257Z,21.75
2018-07-17T06:11:54.073Z,17.50
2018-07-17T06:16:57.853Z,17.50
2018-07-17T06:22:01.655Z,19.80
2018-07-17T06:27:05.851Z,19.80
2018-07-17T06:32:09.922Z,20.25
2018-07-17T06:37:13.750Z,19.20
2018-07-17T06:42:18.016Z,21.20
2018-07-17T06:47:21.817Z,15.40
2018-07-17T06:52:25.670Z,18.80
2018-07-17T06:57:29.591Z,19.40
2018-07-17T07:02:33.403Z,17.75
2018-07-17T07:07:37.247Z,16.75
2018-07-17T07:12:41.110Z,18.50
2018-07-17T07:17:44.939Z,15.80
2018-07-17T07:22:48.726Z,18.50
2018-07-17T07:27:52.611Z,14.80
2018-07-17T07:32:56.523Z,15.25
2018-07-17T07:38:00.354Z,14.75
2018-07-17T07:43:04.229Z,17.50
2018-07-17T07:48:08.138Z,15.75
2018-07-17T07:53:12.006Z,16.00
2018-07-17T07:58:15.779Z,19.00
2018-07-17T08:08:29.463Z,16.00
2018-07-17T08:13:33.294Z,15.25
2018-07-17T08:18:37.190Z,16.00
2018-07-17T08:23:41.096Z,15.25
2018-07-17T08:28:45.008Z,16.50
2018-07-17T08:33:48.819Z,11.60
2018-07-17T08:38:52.642Z,13.40
2018-07-17T08:43:56.467Z,13.40
2018-07-17T08:49:00.342Z,15.75
2018-07-17T08:54:04.253Z,14.50
2018-07-17T08:59:08.151Z,11.75
2018-07-17T09:04:11.959Z,14.50
2018-07-17T09:09:15.751Z,11.00
2018-07-17T09:14:19.623Z,10.00
2018-07-17T09:19:23.486Z,9.25
2018-07-17T09:24:27.383Z,12.25
2018-07-17T09:29:31.135Z,15.50
2018-07-17T09:34:34.998Z,12.20
2018-07-17T09:39:38.814Z,14.00
2018-07-17T09:44:42.757Z,13.80
2018-07-17T09:49:46.617Z,12.25
2018-07-17T09:54:50.339Z,13.25
2018-07-17T09:59:54.841Z,12.00
2018-07-17T10:04:59.288Z,13.00
2018-07-17T10:10:04.218Z,12.20
2018-07-17T10:15:08.399Z,13.00
2018-07-17T10:20:12.345Z,12.20
2018-07-17T10:25:16.143Z,11.20
2018-07-17T10:30:20.132Z,15.75
2018-07-17T10:35:24.294Z,12.80
2018-07-17T10:40:28.159Z,14.40
2018-07-17T10:45:31.981Z,28.75
2018-07-17T10:50:35.760Z,18.75
2018-07-17T10:55:39.867Z,15.00
2018-07-17T11:00:43.730Z,15.50
2018-07-17T11:05:47.568Z,15.20
2018-07-17T11:10:51.378Z,10.75
2018-07-17T11:15:55.178Z,10.50
2018-07-17T11:20:58.982Z,12.50
2018-07-17T11:26:02.774Z,10.80
2018-07-17T11:31:06.590Z,10.40
2018-07-17T11:36:10.404Z,9.00
2018-07-17T11:41:14.240Z,11.40
2018-07-17T11:46:18.052Z,9.00
2018-07-17T11:51:21.863Z,11.50
2018-07-17T11:56:25.694Z,13.40
2018-07-17T12:01:29.526Z,11.40
2018-07-17T12:06:33.353Z,13.00
2018-07-17T12:11:37.150Z,9.25
2018-07-17T12:16:41.010Z,10.75
2018-07-17T12:21:44.857Z,9.00
2018-07-17T12:26:48.770Z,9.40
2018-07-17T12:31:52.551Z,7.80
2018-07-17T12:36:56.342Z,10.50
2018-07-17T12:42:00.132Z,9.00
2018-07-17T12:47:03.984Z,10.40
2018-07-17T12:52:07.889Z,11.75
2018-07-17T12:57:11.733Z,10.40
2018-07-17T13:02:15.536Z,9.60
2018-07-17T13:07:19.388Z,9.00
2018-07-17T13:12:23.205Z,8.00
2018-07-17T13:17:27.018Z,9.00
2018-07-17T13:22:30.858Z,7.40
2018-07-17T13:27:34.775Z,8.25
2018-07-17T13:32:38.582Z,8.00
2018-07-17T13:37:42.468Z,8.00
2018-07-17T13:42:46.261Z,7.75
2018-07-17T13:47:50.071Z,9.00
2018-07-17T13:52:53.952Z,7.75
2018-07-17T13:57:57.722Z,8.40
2018-07-17T14:03:01.568Z,7.20
2018-07-17T14:08:05.594Z,9.00
2018-07-17T14:13:09.462Z,7.20
2018-07-17T14:18:13.263Z,9.00
2018-07-17T14:23:17.035Z,7.50
2018-07-17T14:28:20.859Z,8.80
2018-07-17T14:33:25.026Z,8.00
2018-07-17T14:38:28.776Z,7.00
2018-07-17T14:43:32.645Z,7.00
2018-07-17T14:48:38.515Z,6.00
2018-07-17T14:53:42.357Z,10.00
2018-07-17T14:58:46.079Z,9.00
2018-07-17T15:03:49.961Z,8.50
2018-07-17T15:08:53.757Z,6.40
2018-07-17T15:13:57.578Z,8.00
2018-07-17T15:19:01.408Z,6.75
2018-07-17T15:24:05.218Z,9.25
2018-07-17T15:29:08.995Z,9.00
2018-07-17T15:34:12.800Z,11.00
2018-07-17T15:39:16.929Z,9.80
2018-07-17T15:44:20.854Z,11.00
2018-07-17T15:49:24.693Z,10.00
2018-07-17T15:54:28.637Z,11.00
2018-07-17T15:59:32.422Z,8.75
2018-07-17T16:04:36.238Z,11.50
2018-07-17T16:09:40.063Z,9.40
2018-07-17T16:14:44.147Z,10.50
2018-07-17T16:19:48.215Z,9.60
2018-07-17T16:24:52.472Z,10.80
2018-07-17T16:29:56.685Z,10.75
2018-07-17T16:35:03.088Z,12.75
2018-07-17T16:40:07.806Z,11.33
2018-07-17T16:45:11.580Z,12.20
2018-07-17T16:50:15.958Z,11.20
2018-07-17T16:55:19.822Z,11.25
2018-07-17T17:00:23.758Z,9.40
2018-07-17T17:05:27.562Z,10.20
2018-07-17T17:10:31.461Z,9.00
2018-07-17T17:15:35.629Z,9.75
2018-07-17T17:20:39.370Z,9.60
2018-07-17T17:25:43.234Z,13.50
2018-07-17T17:30:47.167Z,8.75
2018-07-17T17:35:51.059Z,9.00
2018-07-17T17:40:54.973Z,10.25
2018-07-17T17:45:59.158Z,11.50
2018-07-17T17:51:02.947Z,9.25
2018-07-17T17:56:06.945Z,10.40
2018-07-17T18:01:11.027Z,10.75
2018-07-17T18:06:15.043Z,7.80
2018-07-17T18:11:18.891Z,7.75
2018-07-17T18:16:24.056Z,9.40
2018-07-17T18:21:27.885Z,12.00
2018-07-17T18:26:31.755Z,8.80
2018-07-17T18:31:35.608Z,8.50
2018-07-17T18:36:39.458Z,8.80
2018-07-17T18:41:43.491Z,11.20
2018-07-17T18:46:47.231Z,9.00
2018-07-17T18:51:51.119Z,10.25
2018-07-17T18:56:55.050Z,12.25
2018-07-17T19:01:58.846Z,10.50
2018-07-17T19:07:02.710Z,11.00
2018-07-17T19:12:06.537Z,9.20
2018-07-17T19:17:10.949Z,10.75
2018-07-17T19:22:14.894Z,10.00
2018-07-17T19:27:18.823Z,9.00
2018-07-17T19:32:22.706Z,9.40
2018-07-17T19:37:26.652Z,8.40
2018-07-17T19:42:30.613Z,10.60
2018-07-17T19:47:34.559Z,7.50
2018-07-17T19:52:38.460Z,10.00
2018-07-17T19:57:42.283Z,7.50
2018-07-17T20:02:46.144Z,7.25
2018-07-17T20:07:50.119Z,6.50
2018-07-17T20:12:54.085Z,8.25
2018-07-17T20:17:58.133Z,7.25
2018-07-17T20:23:02.179Z,9.00
2018-07-17T20:28:06.226Z,9.75
2018-07-17T20:33:10.126Z,10.50
2018-07-17T20:38:14.449Z,10.00
2018-07-17T20:43:18.224Z,9.80
2018-07-17T20:48:22.897Z,11.00
2018-07-17T20:53:26.926Z,9.00
2018-07-17T20:58:30.864Z,6.80
2018-07-17T21:03:34.750Z,10.60
2018-07-17T21:08:38.689Z,10.00
2018-07-17T21:13:42.563Z,9.00
2018-07-17T21:18:46.659Z,9.00
2018-07-17T21:23:50.519Z,9.00
2018-07-17T21:28:54.314Z,10.00
2018-07-17T21:33:58.186Z,6.75
2018-07-17T21:39:02.201Z,9.00
2018-07-17T21:44:06.054Z,10.25
2018-07-17T21:49:09.856Z,8.60
2018-07-17T21:54:13.700Z,11.20
2018-07-17T21:59:17.523Z,8.20
2018-07-17T22:04:21.305Z,11.50
2018-07-17T22:09:25.170Z,11.00
2018-07-17T22:14:29.009Z,9.50
2018-07-17T22:19:32.916Z,8.60
2018-07-17T22:24:36.732Z,12.00
2018-07-17T22:29:40.526Z,11.20
2018-07-17T22:34:44.420Z,9.00
2018-07-17T22:39:48.263Z,11.00
2018-07-17T22:44:52.118Z,9.75
2018-07-17T22:49:55.961Z,12.00
2018-07-17T22:54:59.810Z,10.40
2018-07-17T23:00:06.932Z,10.00
2018-07-17T23:05:10.806Z,10.60
2018-07-17T23:10:14.692Z,9.00
2018-07-17T23:15:18.544Z,9.40
2018-07-17T23:20:22.334Z,12.40
2018-07-17T23:25:27.330Z,12.00
2018-07-17T23:30:31.102Z,12.60
2018-07-17T23:35:34.942Z,12.00
2018-07-17T23:40:38.827Z,13.60
2018-07-17T23:45:42.582Z,14.80
2018-07-17T23:50:46.369Z,15.20
2018-07-17T23:55:50.219Z,13.50
